Whitehaven, United Kingdom
Current Conditions -  °F | °C
As of 1:50 PM on Friday 31 Oct 2014 (Local Time) from EGNC Reporting Station
Scattered Clouds Scattered Clouds  
Wind Chill: 64°   Ceiling: Unl
Heat Index: 64°   Visibility: 6mi
Dew Point: 57°   Wind: 13mph
Humidity: 77%   Direction: 190°S
Pressure: 29.77"   Gusts: NA
Location:  54.55°N, 3.59°W
Report Text: EGNC 311350Z 19011KT 150V220 9999 SCT026 18/14 Q1008
Loading
Personal Weather Stations






























Interactive Weather Map
Tropical Storm Tracking
New forecast layout! Learn more

10-Day Weather Forecast

Advertisements
Track Severe Weather on mobile